Time,TemperatureF,DewpointF,PressureIn,WindDirection,WindDirectionDegrees,WindSpeedMPH,WindSpeedGustMPH,Humidity,HourlyPrecipIn,Conditions,Clouds,dailyrainin,SolarRadiationWatts/m^2,SoftwareType,DateUTC
2013-06-13 00:07:00,68.0,67.0,29.56,SW,230,1.0,4.0,97,0.01,,,0.00,0,weatherlink.com 1.10,2013-06-13 04:07:00,
2013-06-13 00:20:00,68.2,67.0,29.55,NNE,12,2.0,9.0,96,0.00,,,0.00,0,weatherlink.com 1.10,2013-06-13 04:20:00,
2013-06-13 00:35:00,68.1,67.0,29.53,ENE,57,2.0,8.0,96,0.00,,,0.00,0,weatherlink.com 1.10,2013-06-13 04:35:00,
2013-06-13 00:50:00,68.1,67.0,29.53,ENE,58,3.0,5.0,96,0.00,,,0.00,0,weatherlink.com 1.10,2013-06-13 04:50:00,
2013-06-13 01:06:00,67.4,66.0,29.56,North,354,1.0,8.0,95,0.00,,,0.00,0,weatherlink.com 1.10,2013-06-13 05:06:00,
2013-06-13 01:21:00,67.1,66.0,29.59,North,349,1.0,10.0,95,0.00,,,0.00,0,weatherlink.com 1.10,2013-06-13 05:21:00,
2013-06-13 01:36:00,66.6,65.0,29.60,NE,34,6.0,13.0,94,0.01,,,0.01,0,weatherlink.com 1.10,2013-06-13 05:36:00,
2013-06-13 01:51:00,65.8,64.0,29.57,NE,36,3.0,6.0,94,0.02,,,0.02,0,weatherlink.com 1.10,2013-06-13 05:51:00,
2013-06-13 02:06:00,65.4,64.0,29.55,NE,41,2.0,8.0,95,0.03,,,0.03,0,weatherlink.com 1.10,2013-06-13 06:06:00,
2013-06-13 02:21:00,65.0,64.0,29.47,East,91,5.0,12.0,95,0.06,,,0.06,0,weatherlink.com 1.10,2013-06-13 06:21:00,
2013-06-13 02:36:00,64.3,63.0,29.42,SW,215,4.0,20.0,96,0.07,,,0.08,0,weatherlink.com 1.10,2013-06-13 06:36:00,
2013-06-13 02:51:00,64.9,64.0,29.50,WSW,253,2.0,11.0,96,0.06,,,0.08,0,weatherlink.com 1.10,2013-06-13 06:51:00,
2013-06-13 03:06:00,65.4,64.0,29.54,WNW,299,6.0,12.0,95,0.05,,,0.08,0,weatherlink.com 1.10,2013-06-13 07:06:00,
2013-06-13 03:21:00,65.5,64.0,29.53,West,266,2.0,10.0,95,0.02,,,0.08,0,weatherlink.com 1.10,2013-06-13 07:21:00,
2013-06-13 03:36:00,65.4,64.0,29.53,West,276,5.0,7.0,95,0.00,,,0.08,0,weatherlink.com 1.10,2013-06-13 07:36:00,
2013-06-13 03:51:00,65.2,64.0,29.54,West,279,4.0,8.0,95,0.00,,,0.08,0,weatherlink.com 1.10,2013-06-13 07:51:00,
2013-06-13 04:06:00,65.1,64.0,29.55,WNW,296,3.0,8.0,96,0.00,,,0.08,0,weatherlink.com 1.10,2013-06-13 08:06:00,
2013-06-13 04:21:00,64.9,64.0,29.54,WNW,302,3.0,6.0,96,0.00,,,0.08,0,weatherlink.com 1.10,2013-06-13 08:21:00,
2013-06-13 04:36:00,64.7,63.0,29.55,WNW,301,0.0,4.0,95,0.00,,,0.08,0,weatherlink.com 1.10,2013-06-13 08:36:00,
2013-06-13 04:51:00,64.6,64.0,29.57,WNW,303,4.0,7.0,96,0.00,,,0.08,0,weatherlink.com 1.10,2013-06-13 08:51:00,
2013-06-13 05:06:00,64.5,63.0,29.57,NW,316,4.0,13.0,95,0.00,,,0.08,0,weatherlink.com 1.10,2013-06-13 09:06:00,
2013-06-13 05:21:00,64.3,63.0,29.58,NW,324,2.0,15.0,95,0.00,,,0.08,0,weatherlink.com 1.10,2013-06-13 09:21:00,
2013-06-13 05:36:00,63.6,62.0,29.59,NNE,17,9.0,14.0,95,0.00,,,0.08,0,weatherlink.com 1.10,2013-06-13 09:36:00,
2013-06-13 05:51:00,62.5,61.0,29.60,NNW,337,3.0,13.0,95,0.00,,,0.08,0,weatherlink.com 1.10,2013-06-13 09:51:00,
2013-06-13 06:06:00,62.3,61.0,29.59,WNW,293,0.0,9.0,96,0.00,,,0.08,0,weatherlink.com 1.10,2013-06-13 10:06:00,
2013-06-13 06:21:00,62.3,61.0,29.60,NNW,332,0.0,8.0,96,0.00,,,0.08,5,weatherlink.com 1.10,2013-06-13 10:21:00,
2013-06-13 06:36:00,62.3,61.0,29.61,NW,313,4.0,10.0,96,0.00,,,0.08,14,weatherlink.com 1.10,2013-06-13 10:36:00,
2013-06-13 06:51:00,62.5,61.0,29.61,North,4,2.0,11.0,96,0.00,,,0.08,19,weatherlink.com 1.10,2013-06-13 10:51:00,
2013-06-13 07:06:00,62.5,61.0,29.61,North,4,3.0,10.0,96,0.00,,,0.08,25,weatherlink.com 1.10,2013-06-13 11:06:00,
2013-06-13 07:21:00,62.7,62.0,29.62,North,10,5.0,11.0,96,0.00,,,0.08,28,weatherlink.com 1.10,2013-06-13 11:21:00,
2013-06-13 07:36:00,63.0,62.0,29.62,NNW,347,7.0,9.0,96,0.00,,,0.08,26,weatherlink.com 1.10,2013-06-13 11:36:00,
2013-06-13 07:51:00,63.2,62.0,29.63,NNW,348,8.0,13.0,95,0.00,,,0.08,12,weatherlink.com 1.10,2013-06-13 11:51:00,
2013-06-13 08:06:00,63.1,62.0,29.65,NNW,348,0.0,12.0,96,0.00,,,0.08,35,weatherlink.com 1.10,2013-06-13 12:06:00,
2013-06-13 08:21:00,63.1,62.0,29.65,NNW,348,6.0,11.0,95,0.00,,,0.08,58,weatherlink.com 1.10,2013-06-13 12:21:00,
2013-06-13 08:36:00,63.6,62.0,29.65,NE,46,4.0,9.0,94,0.00,,,0.08,105,weatherlink.com 1.10,2013-06-13 12:36:00,
2013-06-13 08:51:00,64.4,62.0,29.67,NE,45,7.0,8.0,92,0.00,,,0.08,139,weatherlink.com 1.10,2013-06-13 12:51:00,
2013-06-13 09:06:00,65.3,61.0,29.69,North,354,10.0,15.0,87,0.00,,,0.08,163,weatherlink.com 1.10,2013-06-13 13:06:00,
2013-06-13 09:21:00,65.5,60.0,29.70,NNE,33,0.0,12.0,83,0.00,,,0.08,213,weatherlink.com 1.10,2013-06-13 13:21:00,
2013-06-13 09:36:00,66.1,61.0,29.72,North,8,2.0,11.0,82,0.00,,,0.08,255,weatherlink.com 1.10,2013-06-13 13:36:00,
2013-06-13 09:52:00,67.0,60.0,29.71,NE,44,3.0,11.0,79,0.00,,,0.08,462,weatherlink.com 1.10,2013-06-13 13:52:00,
2013-06-13 10:07:00,67.7,59.0,29.72,NNE,14,3.0,13.0,74,0.00,,,0.08,631,weatherlink.com 1.10,2013-06-13 14:07:00,
2013-06-13 10:22:00,68.9,60.0,29.73,NE,54,4.0,12.0,72,0.00,,,0.08,610,weatherlink.com 1.10,2013-06-13 14:22:00,
2013-06-13 10:37:00,70.1,59.0,29.73,NE,41,7.0,12.0,69,0.00,,,0.08,649,weatherlink.com 1.10,2013-06-13 14:37:00,
2013-06-13 10:52:00,71.3,59.0,29.73,NNE,17,9.0,12.0,66,0.00,,,0.08,689,weatherlink.com 1.10,2013-06-13 14:52:00,
2013-06-13 11:07:00,71.6,59.0,29.74,NW,324,3.0,13.0,64,0.00,,,0.08,721,weatherlink.com 1.10,2013-06-13 15:07:00,
2013-06-13 11:22:00,72.0,59.0,29.74,NE,47,6.0,13.0,64,0.00,,,0.08,761,weatherlink.com 1.10,2013-06-13 15:22:00,
2013-06-13 11:37:00,72.3,58.0,29.74,North,359,7.0,13.0,62,0.00,,,0.08,795,weatherlink.com 1.10,2013-06-13 15:37:00,
2013-06-13 11:52:00,73.0,59.0,29.75,NNW,337,7.0,10.0,61,0.00,,,0.08,824,weatherlink.com 1.10,2013-06-13 15:52:00,
2013-06-13 12:07:00,73.7,59.0,29.75,ESE,120,4.0,14.0,60,0.00,,,0.08,875,weatherlink.com 1.10,2013-06-13 16:07:00,
2013-06-13 12:22:00,74.1,59.0,29.76,WSW,239,7.0,15.0,59,0.00,,,0.08,898,weatherlink.com 1.10,2013-06-13 16:22:00,
2013-06-13 12:37:00,73.2,59.0,29.77,NNW,335,5.0,18.0,61,0.00,,,0.08,898,weatherlink.com 1.10,2013-06-13 16:37:00,
2013-06-13 12:52:00,72.9,58.0,29.77,WNW,289,7.0,18.0,60,0.00,,,0.08,914,weatherlink.com 1.10,2013-06-13 16:52:00,
2013-06-13 13:07:00,74.0,54.0,29.77,WNW,299,8.0,14.0,50,0.00,,,0.08,928,weatherlink.com 1.10,2013-06-13 17:07:00,
2013-06-13 13:22:00,74.1,55.0,29.77,NNW,343,5.0,19.0,51,0.00,,,0.08,939,weatherlink.com 1.10,2013-06-13 17:22:00,
2013-06-13 13:37:00,74.5,56.0,29.78,NW,326,7.0,11.0,52,0.00,,,0.08,942,weatherlink.com 1.10,2013-06-13 17:37:00,
2013-06-13 13:52:00,73.9,56.0,29.77,North,11,9.0,16.0,53,0.00,,,0.08,944,weatherlink.com 1.10,2013-06-13 17:52:00,
2013-06-13 14:07:00,74.2,55.0,29.78,NNW,343,13.0,17.0,52,0.00,,,0.08,944,weatherlink.com 1.10,2013-06-13 18:07:00,
2013-06-13 14:22:00,74.3,56.0,29.79,NW,318,6.0,23.0,54,0.00,,,0.08,937,weatherlink.com 1.10,2013-06-13 18:22:00,
2013-06-13 14:37:00,73.9,56.0,29.80,NNE,13,4.0,19.0,53,0.00,,,0.08,930,weatherlink.com 1.10,2013-06-13 18:37:00,
2013-06-13 14:52:00,73.9,57.0,29.80,NW,314,11.0,17.0,55,0.00,,,0.08,916,weatherlink.com 1.10,2013-06-13 18:52:00,
2013-06-13 15:07:00,74.2,56.0,29.81,NNW,336,12.0,20.0,54,0.00,,,0.08,905,weatherlink.com 1.10,2013-06-13 19:07:00,
2013-06-13 15:22:00,73.4,56.0,29.82,NW,322,4.0,18.0,55,0.00,,,0.08,886,weatherlink.com 1.10,2013-06-13 19:22:00,
2013-06-13 15:37:00,72.7,56.0,29.82,NNW,347,8.0,21.0,56,0.00,,,0.08,868,weatherlink.com 1.10,2013-06-13 19:37:00,
2013-06-13 15:53:00,73.2,57.0,29.82,NNW,341,8.0,14.0,57,0.00,,,0.08,844,weatherlink.com 1.10,2013-06-13 19:53:00,
2013-06-13 16:08:00,72.0,56.0,29.82,NW,324,11.0,21.0,58,0.00,,,0.08,817,weatherlink.com 1.10,2013-06-13 20:08:00,
2013-06-13 16:23:00,71.3,56.0,29.84,North,359,6.0,19.0,59,0.00,,,0.08,786,weatherlink.com 1.10,2013-06-13 20:23:00,
2013-06-13 16:38:00,70.3,57.0,29.84,WNW,288,10.0,18.0,62,0.00,,,0.08,754,weatherlink.com 1.10,2013-06-13 20:38:00,
2013-06-13 16:53:00,68.8,55.0,29.84,WNW,301,10.0,22.0,62,0.00,,,0.08,721,weatherlink.com 1.10,2013-06-13 20:53:00,
2013-06-13 17:08:00,68.6,54.0,29.85,NNW,340,13.0,23.0,61,0.00,,,0.08,686,weatherlink.com 1.10,2013-06-13 21:08:00,
2013-06-13 17:23:00,68.4,55.0,29.85,NNW,327,6.0,18.0,62,0.00,,,0.08,650,weatherlink.com 1.10,2013-06-13 21:23:00,
2013-06-13 17:38:00,68.6,55.0,29.85,NNW,329,3.0,19.0,63,0.00,,,0.08,605,weatherlink.com 1.10,2013-06-13 21:38:00,
2013-06-13 17:53:00,68.3,55.0,29.85,North,10,9.0,19.0,62,0.00,,,0.08,564,weatherlink.com 1.10,2013-06-13 21:53:00,
2013-06-13 18:08:00,68.5,55.0,29.85,NNW,337,19.0,19.0,62,0.00,,,0.08,520,weatherlink.com 1.10,2013-06-13 22:08:00,
2013-06-13 18:23:00,68.0,55.0,29.85,NNW,329,6.0,21.0,64,0.00,,,0.08,473,weatherlink.com 1.10,2013-06-13 22:23:00,
2013-06-13 18:38:00,67.4,54.0,29.85,NW,323,5.0,18.0,63,0.00,,,0.08,429,weatherlink.com 1.10,2013-06-13 22:38:00,
2013-06-13 18:53:00,67.7,54.0,29.84,NNE,31,8.0,18.0,62,0.00,,,0.08,385,weatherlink.com 1.10,2013-06-13 22:53:00,
2013-06-13 19:08:00,67.6,54.0,29.85,NNW,343,6.0,17.0,63,0.00,,,0.08,330,weatherlink.com 1.10,2013-06-13 23:08:00,
2013-06-13 19:23:00,67.4,54.0,29.85,NNE,12,6.0,18.0,63,0.00,,,0.08,285,weatherlink.com 1.10,2013-06-13 23:23:00,
2013-06-13 19:38:00,67.7,54.0,29.85,WNW,299,4.0,17.0,62,0.00,,,0.08,237,weatherlink.com 1.10,2013-06-13 23:38:00,
2013-06-13 19:53:00,67.7,54.0,29.85,North,4,7.0,15.0,62,0.00,,,0.08,188,weatherlink.com 1.10,2013-06-13 23:53:00,
2013-06-13 20:08:00,67.8,54.0,29.86,North,4,5.0,12.0,62,0.00,,,0.08,132,weatherlink.com 1.10,2013-06-14 00:08:00,
2013-06-13 20:23:00,67.3,54.0,29.85,ENE,68,4.0,13.0,62,0.00,,,0.08,86,weatherlink.com 1.10,2013-06-14 00:23:00,
2013-06-13 20:53:00,66.7,54.0,29.86,NW,305,3.0,13.0,65,0.00,,,0.08,21,weatherlink.com 1.10,2013-06-14 00:53:00,
2013-06-13 21:08:00,65.5,54.0,29.86,NW,314,5.0,11.0,66,0.00,,,0.08,11,weatherlink.com 1.10,2013-06-14 01:08:00,
2013-06-13 21:23:00,64.0,53.0,29.87,NW,310,5.0,17.0,68,0.00,,,0.08,0,weatherlink.com 1.10,2013-06-14 01:23:00,
2013-06-13 21:38:00,63.3,54.0,29.87,NW,316,1.0,11.0,71,0.00,,,0.08,0,weatherlink.com 1.10,2013-06-14 01:38:00,
2013-06-13 21:53:00,62.6,54.0,29.88,NNW,345,4.0,12.0,74,0.00,,,0.08,0,weatherlink.com 1.10,2013-06-14 01:53:00,
2013-06-13 22:08:00,62.0,54.0,29.89,NW,315,4.0,11.0,75,0.00,,,0.08,0,weatherlink.com 1.10,2013-06-14 02:08:00,
2013-06-13 22:23:00,61.3,54.0,29.89,NW,311,6.0,12.0,77,0.00,,,0.08,0,weatherlink.com 1.10,2013-06-14 02:23:00,
2013-06-13 22:38:00,60.8,54.0,29.88,NW,314,1.0,11.0,79,0.00,,,0.08,0,weatherlink.com 1.10,2013-06-14 02:38:00,
2013-06-13 22:53:00,60.1,54.0,29.89,WNW,299,10.0,12.0,80,0.00,,,0.08,0,weatherlink.com 1.10,2013-06-14 02:53:00,
2013-06-13 23:08:00,59.3,54.0,29.90,NW,318,3.0,15.0,82,0.00,,,0.08,0,weatherlink.com 1.10,2013-06-14 03:08:00,
2013-06-13 23:23:00,58.8,54.0,29.90,WNW,292,3.0,10.0,83,0.00,,,0.08,0,weatherlink.com 1.10,2013-06-14 03:23:00,
2013-06-13 23:38:00,58.3,54.0,29.90,WNW,300,2.0,8.0,84,0.00,,,0.08,0,weatherlink.com 1.10,2013-06-14 03:38:00,
2013-06-13 23:53:00,57.8,53.0,29.90,NW,324,6.0,11.0,85,0.00,,,0.08,0,weatherlink.com 1.10,2013-06-14 03:53:00,